Time;durP1;ratioP1;P1;durP2;ratioP2;P2;SDS_P1;SDS_P2;PMS_P1;PMS_P2;Temp;Humidity;BMP_temperature;BMP_pressure;BME280_temperature;BME280_humidity;BME280_pressure;Samples;Min_cycle;Max_cycle;Signal;HPM_P1;HPM_P2
2022/02/03 00:01:50;;;;;;;;;;;;;;;;;;5027357;28;20563;-57
2022/02/03 00:04:20;;;;;;;19.50;7.65;;;;;;;;;;5028964;28;20036;-57
2022/02/03 00:06:51;;;;;;;15.10;7.55;;;;;;;;;;5046699;28;20077;-58
2022/02/03 00:09:50;;;;;;;16.58;7.90;;;;;;;;;;5039651;28;20057;-59
2022/02/03 00:23:40;;;;;;;14.90;7.80;;;;;;;;;;5027033;28;20053;-59
2022/02/03 00:26:06;;;;;;;18.23;8.15;;;;;;;;;;5035130;28;20067;-58
2022/02/03 00:28:40;;;;;;;16.10;7.97;;;;;;;;;;5026488;28;20053;-56
2022/02/03 00:31:12;;;;;;;18.38;8.43;;;;;;;;;;5035547;28;20048;-59
2022/02/03 00:33:49;;;;;;;17.55;8.57;;;;;;;;;;5043655;28;20062;-59
2022/02/03 00:36:21;;;;;;;18.60;7.85;;;;;;;;;;5026371;28;20057;-59
2022/02/03 00:50:00;;;;;;;16.80;8.07;;;;;;;;;;5026223;28;20076;-56
2022/02/03 00:52:33;;;;;;;22.42;8.77;;;;;;;;;;5022146;28;20054;-59
2022/02/03 00:54:59;;;;;;;17.92;9.55;;;;;;;;;;5025262;28;20045;-57
2022/02/03 00:57:30;;;;;;;24.83;9.18;;;;;;;;;;5020116;28;20057;-58
2022/02/03 01:00:02;;;;;;;21.20;8.90;;;;;;;;;;5024988;28;20077;-58
2022/02/03 01:02:29;;;;;;;18.10;9.13;;;;;;;;;;5020281;28;20064;-57
2022/02/03 01:04:58;;;;;;;22.45;9.32;;;;;;;;;;5026131;28;20103;-58
2022/02/03 01:07:26;;;;;;;24.63;9.88;;;;;;;;;;5021386;28;20057;-58
2022/02/03 01:10:02;;;;;;;19.92;9.63;;;;;;;;;;5025163;28;20116;-59
2022/02/03 01:12:42;;;;;;;23.38;10.75;;;;;;;;;;5020888;28;20045;-59
2022/02/03 01:15:19;;;;;;;25.85;10.95;;;;;;;;;;5025827;28;20058;-58
2022/02/03 01:17:55;;;;;;;22.35;10.07;;;;;;;;;;5020543;28;20107;-59
2022/02/03 01:20:52;;;;;;;18.77;9.07;;;;;;;;;;5026025;28;20057;-59
2022/02/03 01:34:39;;;;;;;31.08;10.90;;;;;;;;;;5003861;28;20065;-59
2022/02/03 01:37:36;;;;;;;24.02;9.55;;;;;;;;;;5002392;28;20073;-58
2022/02/03 01:45:49;;;;;;;22.13;9.85;;;;;;;;;;5020943;28;20127;-58
2022/02/03 01:48:22;;;;;;;24.52;11.18;;;;;;;;;;5024577;28;20053;-59
2022/02/03 01:53:34;;;;;;;17.27;8.00;;;;;;;;;;5044933;28;20055;-59
2022/02/03 01:56:03;;;;;;;24.52;10.95;;;;;;;;;;5050080;28;20052;-57
2022/02/03 01:58:32;;;;;;;24.30;10.40;;;;;;;;;;5037176;28;20076;-57
2022/02/03 02:00:59;;;;;;;;;;;;;;;;;;5029292;28;20123;-57
2022/02/03 02:03:32;;;;;;;28.73;11.05;;;;;;;;;;5027053;28;19935;-56
2022/02/03 02:06:19;;;;;;;23.33;10.35;;;;;;;;;;5048328;28;20080;-56
2022/02/03 02:08:55;;;;;;;21.70;9.07;;;;;;;;;;5011940;28;20099;-57
2022/02/03 02:11:44;;;;;;;31.13;13.05;;;;;;;;;;5029319;28;20089;-56
2022/02/03 02:14:47;;;;;;;27.33;12.32;;;;;;;;;;5034644;28;20076;-56
2022/02/03 02:36:50;;;;;;;26.45;12.68;;;;;;;;;;4930780;28;20055;-57
2022/02/03 02:37:10;;;;;;;31.90;13.98;;;;;;;;;;5028091;28;20049;-57
2022/02/03 02:39:49;;;;;;;28.58;13.25;;;;;;;;;;5005710;28;20062;-59
2022/02/03 02:42:34;;;;;;;33.72;14.65;;;;;;;;;;5027700;28;20357;-57
2022/02/03 02:45:04;;;;;;;32.70;14.00;;;;;;;;;;5020338;28;20063;-58
2022/02/03 02:47:36;;;;;;;33.17;14.25;;;;;;;;;;5047573;28;20086;-57
2022/02/03 02:50:07;;;;;;;33.47;13.45;;;;;;;;;;5043017;28;20068;-57
2022/02/03 02:52:39;;;;;;;32.40;13.48;;;;;;;;;;5047671;28;20080;-57
2022/02/03 02:55:16;;;;;;;30.73;13.90;;;;;;;;;;5040485;28;20139;-58
2022/02/03 03:03:53;;;;;;;30.58;12.02;;;;;;;;;;5045847;28;20061;-58
2022/02/03 03:31:22;;;;;;;24.38;10.95;;;;;;;;;;5047429;28;20101;-59
2022/02/03 03:33:56;;;;;;;27.50;12.13;;;;;;;;;;5026093;28;20050;-58
2022/02/03 03:36:24;;;;;;;26.35;11.52;;;;;;;;;;5027436;28;20081;-56
2022/02/03 03:38:51;;;;;;;28.42;10.90;;;;;;;;;;5039774;28;20140;-58
2022/02/03 03:41:19;;;;;;;27.70;10.68;;;;;;;;;;5047268;28;20551;-57
2022/02/03 03:43:51;;;;;;;23.70;10.73;;;;;;;;;;5026433;28;20057;-57
2022/02/03 03:46:21;;;;;;;23.50;10.10;;;;;;;;;;5026936;28;20049;-57
2022/02/03 03:48:59;;;;;;;25.25;10.00;;;;;;;;;;5021734;28;20124;-57
2022/02/03 03:51:28;;;;;;;22.23;10.88;;;;;;;;;;5026738;28;20053;-58
2022/02/03 03:54:03;;;;;;;24.02;9.15;;;;;;;;;;5021246;28;20080;-58
2022/02/03 03:56:46;;;;;;;21.48;9.00;;;;;;;;;;5026802;28;20057;-60
2022/02/03 04:30:47;;;;;;;16.83;6.95;;;;;;;;;;5000080;28;20050;-58
2022/02/03 04:33:51;;;;;;;16.48;7.18;;;;;;;;;;5004284;28;20057;-59
2022/02/03 04:39:22;;;;;;;19.42;7.63;;;;;;;;;;5001922;28;20132;-58
2022/02/03 04:54:01;;;;;;;15.90;7.30;;;;;;;;;;4988210;28;20057;-58
2022/02/03 04:56:50;;;;;;;16.42;7.07;;;;;;;;;;4998850;28;20090;-60
2022/02/03 05:02:41;;;;;;;13.85;6.38;;;;;;;;;;5124504;27;20149;-55
2022/02/03 05:05:26;;;;;;;14.95;6.25;;;;;;;;;;5065385;28;20513;-59
2022/02/03 05:08:20;;;;;;;16.90;6.13;;;;;;;;;;5072700;28;20058;-56
2022/02/03 05:11:10;;;;;;;12.82;5.63;;;;;;;;;;5063070;28;20134;-58
2022/02/03 05:13:59;;;;;;;13.82;5.80;;;;;;;;;;5071917;28;20504;-59
2022/02/03 05:16:59;;;;;;;13.15;5.47;;;;;;;;;;5058958;28;20066;-60
2022/02/03 05:20:09;;;;;;;11.70;5.22;;;;;;;;;;5069488;28;20047;-59
2022/02/03 05:26:11;;;;;;;11.85;4.90;;;;;;;;;;5077450;28;20055;-56
2022/02/03 05:43:31;;;;;;;12.88;6.13;;;;;;;;;;5085850;28;20056;-56
2022/02/03 05:46:22;;;;;;;14.55;6.10;;;;;;;;;;5095008;28;20060;-55
2022/02/03 05:49:02;;;;;;;13.32;5.78;;;;;;;;;;5092314;28;20058;-57
2022/02/03 06:05:15;;;;;;;13.43;5.20;;;;;;;;;;5060217;28;20056;-58
2022/02/03 06:07:55;;;;;;;10.90;4.85;;;;;;;;;;5069942;28;20137;-56
2022/02/03 06:13:12;;;;;;;13.25;5.55;;;;;;;;;;5082052;28;20498;-60
2022/02/03 06:15:44;;;;;;;12.07;5.45;;;;;;;;;;5067573;28;20060;-57
2022/02/03 06:23:53;;;;;;;10.07;4.38;;;;;;;;;;5061233;28;20055;-58
2022/02/03 06:29:05;;;;;;;10.55;4.22;;;;;;;;;;5060862;28;20080;-59
2022/02/03 06:31:34;;;;;;;10.90;4.10;;;;;;;;;;5065868;28;20490;-59
2022/02/03 06:34:00;;;;;;;7.30;3.63;;;;;;;;;;5059642;28;20049;-57
2022/02/03 06:36:27;;;;;;;10.88;3.75;;;;;;;;;;5067541;28;21454;-58
2022/02/03 06:38:55;;;;;;;7.93;3.70;;;;;;;;;;5061251;28;21643;-58
2022/02/03 06:41:23;;;;;;;10.27;3.70;;;;;;;;;;5065405;28;20207;-59
2022/02/03 06:43:49;;;;;;;10.77;3.20;;;;;;;;;;5061807;28;20078;-56
2022/02/03 06:46:16;;;;;;;10.15;4.25;;;;;;;;;;5065508;28;20106;-56
2022/02/03 06:48:51;;;;;;;12.50;3.63;;;;;;;;;;5065933;28;20056;-56
2022/02/03 06:51:25;;;;;;;6.05;2.67;;;;;;;;;;5060775;28;20072;-57
2022/02/03 06:53:57;;;;;;;6.60;2.65;;;;;;;;;;5065672;28;20107;-57
2022/02/03 06:56:33;;;;;;;5.38;2.45;;;;;;;;;;5057011;28;20059;-54
2022/02/03 06:59:02;;;;;;;10.32;2.53;;;;;;;;;;5070436;28;20112;-60
2022/02/03 07:01:33;;;;;;;10.20;2.33;;;;;;;;;;5046146;28;20052;-56
2022/02/03 07:04:03;;;;;;;7.72;2.80;;;;;;;;;;5038269;28;20056;-57
2022/02/03 07:06:30;;;;;;;8.02;2.13;;;;;;;;;;5040968;28;20049;-55
2022/02/03 07:08:59;;;;;;;9.63;2.60;;;;;;;;;;5047569;28;20053;-59
2022/02/03 07:11:27;;;;;;;6.75;2.00;;;;;;;;;;5041509;28;20049;-58
2022/02/03 07:13:54;;;;;;;11.10;2.30;;;;;;;;;;5045739;28;20199;-55
2022/02/03 07:16:20;;;;;;;9.07;2.72;;;;;;;;;;5040934;28;20126;-57
2022/02/03 07:18:47;;;;;;;7.85;2.97;;;;;;;;;;5047527;28;20135;-55
2022/02/03 07:21:16;;;;;;;8.40;2.47;;;;;;;;;;5041033;28;20130;-60
2022/02/03 07:23:43;;;;;;;7.93;2.60;;;;;;;;;;5044043;28;20061;-58
2022/02/03 07:26:10;;;;;;;11.93;2.45;;;;;;;;;;5042135;28;20083;-58
2022/02/03 07:28:37;;;;;;;7.07;2.60;;;;;;;;;;5047826;28;20064;-60
2022/02/03 07:31:07;;;;;;;13.38;2.90;;;;;;;;;;5041055;28;20053;-59
2022/02/03 07:33:34;;;;;;;9.55;2.90;;;;;;;;;;5048111;28;20154;-60
2022/02/03 07:36:00;;;;;;;5.80;2.50;;;;;;;;;;5043469;28;20049;-59
2022/02/03 07:38:27;;;;;;;6.50;2.67;;;;;;;;;;5048648;28;20159;-60
2022/02/03 07:40:53;;;;;;;11.35;2.88;;;;;;;;;;5047661;28;20049;-58
2022/02/03 07:43:21;;;;;;;9.07;2.80;;;;;;;;;;5044704;28;20045;-58
2022/02/03 07:45:49;;;;;;;11.65;3.60;;;;;;;;;;5050787;28;20048;-58
2022/02/03 07:48:19;;;;;;;11.20;3.28;;;;;;;;;;5027285;28;20082;-60
2022/02/03 07:50:45;;;;;;;9.90;3.08;;;;;;;;;;5030650;28;20049;-59
2022/02/03 07:53:12;;;;;;;9.38;3.30;;;;;;;;;;5024619;28;20053;-57
2022/02/03 07:55:39;;;;;;;11.00;3.58;;;;;;;;;;5030250;28;20129;-56
2022/02/03 07:58:05;;;;;;;10.45;3.60;;;;;;;;;;5024122;28;20053;-57
2022/02/03 08:00:32;;;;;;;9.13;3.35;;;;;;;;;;5034109;28;20060;-59
2022/02/03 08:03:04;;;;;;;10.18;3.70;;;;;;;;;;5062285;28;20143;-58
2022/02/03 08:05:32;;;;;;;8.13;3.17;;;;;;;;;;5069871;28;20059;-59
2022/02/03 08:08:05;;;;;;;11.85;3.80;;;;;;;;;;5062712;28;20055;-58
2022/02/03 08:10:38;;;;;;;7.78;3.45;;;;;;;;;;5069601;28;20048;-55
2022/02/03 08:13:08;;;;;;;10.30;3.78;;;;;;;;;;5066380;28;20285;-57
2022/02/03 08:15:37;;;;;;;11.93;3.70;;;;;;;;;;5069661;28;20105;-59
2022/02/03 08:18:09;;;;;;;12.57;4.43;;;;;;;;;;5063960;28;20055;-57
2022/02/03 08:20:38;;;;;;;9.80;3.33;;;;;;;;;;5069640;28;20059;-57
2022/02/03 08:26:05;;;;;;;11.05;3.67;;;;;;;;;;5045264;28;20056;-58
2022/02/03 08:28:55;;;;;;;10.50;3.38;;;;;;;;;;5063592;28;20138;-59
2022/02/03 08:31:25;;;;;;;9.75;3.67;;;;;;;;;;5069837;28;20056;-59
2022/02/03 08:33:55;;;;;;;9.73;3.80;;;;;;;;;;5063972;28;20067;-57
2022/02/03 08:36:22;;;;;;;13.40;4.10;;;;;;;;;;5070334;28;20080;-58
2022/02/03 08:38:53;;;;;;;9.73;4.30;;;;;;;;;;5063693;28;20076;-57
2022/02/03 08:41:29;;;;;;;13.88;3.67;;;;;;;;;;5069559;28;20054;-57
2022/02/03 08:43:56;;;;;;;13.68;3.80;;;;;;;;;;5061016;28;20093;-58
2022/02/03 08:46:25;;;;;;;14.00;6.07;;;;;;;;;;5066087;28;20048;-57
2022/02/03 08:48:53;;;;;;;11.13;4.88;;;;;;;;;;5063012;28;20110;-57
2022/02/03 08:51:20;;;;;;;11.97;5.40;;;;;;;;;;5069155;28;20129;-60
2022/02/03 08:53:50;;;;;;;12.15;4.50;;;;;;;;;;5069527;28;20320;-59
2022/02/03 08:56:34;;;;;;;11.60;4.18;;;;;;;;;;5066608;28;20051;-58
2022/02/03 09:59:59;;;;;;;11.73;5.00;;;;;;;;;;5002141;28;20065;-60
2022/02/03 10:02:29;;;;;;;13.88;4.70;;;;;;;;;;5036139;28;20052;-57
2022/02/03 10:04:58;;;;;;;9.95;4.47;;;;;;;;;;5068954;28;20058;-52
2022/02/03 10:07:30;;;;;;;11.38;3.85;;;;;;;;;;5063255;28;20505;-56
2022/02/03 10:09:59;;;;;;;12.40;4.50;;;;;;;;;;5069586;28;20106;-54
2022/02/03 10:12:30;;;;;;;9.57;4.40;;;;;;;;;;5062811;28;20072;-56
2022/02/03 10:14:56;;;;;;;13.13;4.60;;;;;;;;;;5068835;28;20045;-57
2022/02/03 10:17:31;;;;;;;11.65;4.57;;;;;;;;;;5063100;28;20048;-57
2022/02/03 10:20:00;;;;;;;10.30;4.95;;;;;;;;;;5059739;28;20056;-57
2022/02/03 10:22:27;;;;;;;12.05;4.25;;;;;;;;;;5046280;28;20058;-56
2022/02/03 10:25:03;;;;;;;12.50;4.40;;;;;;;;;;5051773;28;20490;-56
2022/02/03 10:27:35;;;;;;;11.40;4.30;;;;;;;;;;5050092;28;20124;-58
2022/02/03 10:30:11;;;;;;;12.48;4.70;;;;;;;;;;5068367;28;20056;-55
2022/02/03 10:32:38;;;;;;;12.40;4.20;;;;;;;;;;5071498;28;20382;-57
2022/02/03 10:35:25;;;;;;;15.35;6.22;;;;;;;;;;5067702;28;20086;-58
2022/02/03 10:38:31;;;;;;;13.98;6.00;;;;;;;;;;5071253;28;20066;-55
2022/02/03 10:41:18;;;;;;;11.48;4.15;;;;;;;;;;5073919;28;20131;-58
2022/02/03 10:49:36;;;;;;;9.68;3.67;;;;;;;;;;5056003;28;20052;-56
2022/02/03 10:52:33;;;;;;;11.73;4.55;;;;;;;;;;5071172;28;20056;-57
2022/02/03 11:03:41;;;;;;;10.38;4.03;;;;;;;;;;5021821;28;20821;-58
2022/02/03 11:06:19;;;;;;;11.43;4.07;;;;;;;;;;5019591;28;20492;-58
2022/02/03 11:08:54;;;;;;;12.35;4.35;;;;;;;;;;5023954;28;20101;-60
2022/02/03 11:11:23;;;;;;;10.80;3.88;;;;;;;;;;5023436;28;20068;-58
2022/02/03 11:13:51;;;;;;;12.00;3.72;;;;;;;;;;5032968;28;20123;-60
2022/02/03 11:16:19;;;;;;;9.48;3.60;;;;;;;;;;5021054;28;20133;-58
2022/02/03 11:18:46;;;;;;;10.00;4.43;;;;;;;;;;5040159;28;20081;-59
2022/02/03 11:21:14;;;;;;;11.73;4.30;;;;;;;;;;5028828;28;20068;-58
2022/02/03 11:23:46;;;;;;;16.33;4.05;;;;;;;;;;5053974;28;20064;-59
2022/02/03 11:26:22;;;;;;;8.85;3.97;;;;;;;;;;5045744;28;20114;-58
2022/02/03 11:40:43;;;;;;;13.68;4.30;;;;;;;;;;5059854;28;20008;-59
2022/02/03 11:43:39;;;;;;;7.38;3.90;;;;;;;;;;5041320;28;20150;-55
2022/02/03 11:49:14;;;;;;;16.13;4.10;;;;;;;;;;5042862;28;20131;-58
2022/02/03 11:57:32;;;;;;;16.25;4.80;;;;;;;;;;5049604;28;20081;-57
2022/02/03 12:17:11;;;;;;;12.13;4.28;;;;;;;;;;4972162;28;20053;-59
2022/02/03 12:19:52;;;;;;;11.80;4.15;;;;;;;;;;5007929;28;20068;-55
2022/02/03 12:22:37;;;;;;;12.23;4.35;;;;;;;;;;5001016;28;20560;-57
2022/02/03 12:25:10;;;;;;;13.07;4.18;;;;;;;;;;4989887;28;20081;-58
2022/02/03 12:27:51;;;;;;;18.70;4.80;;;;;;;;;;4987634;28;20060;-58
2022/02/03 12:30:26;;;;;;;15.15;4.50;;;;;;;;;;5025910;28;20060;-57
2022/02/03 12:36:57;;;;;;;16.65;4.50;;;;;;;;;;5016490;28;20061;-58
2022/02/03 12:38:43;;;;;;;12.80;3.92;;;;;;;;;;5008443;28;20184;-60
2022/02/03 12:41:12;;;;;;;16.55;3.88;;;;;;;;;;5017852;28;20053;-58
2022/02/03 12:43:40;;;;;;;13.85;4.45;;;;;;;;;;5030960;28;20073;-59
2022/02/03 12:46:07;;;;;;;12.05;3.80;;;;;;;;;;5005726;28;20050;-56
2022/02/03 12:48:35;;;;;;;9.30;4.43;;;;;;;;;;5000489;28;20049;-56
2022/02/03 12:51:04;;;;;;;12.00;3.90;;;;;;;;;;5024292;28;20133;-55
2022/02/03 12:53:31;;;;;;;10.02;3.85;;;;;;;;;;5012352;28;20076;-58
2022/02/03 12:56:02;;;;;;;11.50;5.43;;;;;;;;;;5011826;28;20053;-58
2022/02/03 12:58:36;;;;;;;15.25;4.63;;;;;;;;;;5039050;28;20062;-57
2022/02/03 13:01:09;;;;;;;13.23;4.38;;;;;;;;;;5044099;28;20061;-57
2022/02/03 13:03:38;;;;;;;15.52;4.70;;;;;;;;;;5040881;28;20049;-56
2022/02/03 13:06:08;;;;;;;12.75;4.28;;;;;;;;;;5026617;28;20062;-57
2022/02/03 13:08:35;;;;;;;12.23;4.18;;;;;;;;;;5027293;28;20054;-57
2022/02/03 13:11:14;;;;;;;12.93;4.50;;;;;;;;;;5026893;28;20132;-55
2022/02/03 13:13:53;;;;;;;13.88;4.75;;;;;;;;;;5027146;28;20049;-56
2022/02/03 13:16:19;;;;;;;12.60;4.00;;;;;;;;;;5014887;28;20140;-56
2022/02/03 13:18:59;;;;;;;14.23;4.32;;;;;;;;;;5044718;28;20061;-55
2022/02/03 13:21:37;;;;;;;11.77;4.28;;;;;;;;;;5020055;28;20064;-56
2022/02/03 13:24:11;;;;;;;11.55;3.70;;;;;;;;;;5007368;28;20060;-55
2022/02/03 13:26:39;;;;;;;11.10;4.13;;;;;;;;;;5020523;28;20073;-57
2022/02/03 13:29:07;;;;;;;7.47;3.60;;;;;;;;;;5026957;28;20107;-55
2022/02/03 13:31:47;;;;;;;11.48;4.65;;;;;;;;;;5036802;28;20060;-56
2022/02/03 13:34:27;;;;;;;13.02;4.22;;;;;;;;;;5042718;28;20053;-57
2022/02/03 13:37:01;;;;;;;16.90;6.10;;;;;;;;;;5018685;28;20049;-55
2022/02/03 13:39:29;;;;;;;8.90;3.60;;;;;;;;;;5043253;28;20533;-56
2022/02/03 13:42:08;;;;;;;9.18;3.63;;;;;;;;;;5033991;28;20161;-55
2022/02/03 13:44:34;;;;;;;11.40;4.13;;;;;;;;;;5007209;28;20081;-55
2022/02/03 13:47:01;;;;;;;7.75;3.78;;;;;;;;;;5003907;28;20054;-55
2022/02/03 13:49:29;;;;;;;12.30;3.78;;;;;;;;;;4987819;28;20061;-55
2022/02/03 13:51:58;;;;;;;14.07;4.07;;;;;;;;;;4983051;28;20054;-56
2022/02/03 13:54:38;;;;;;;8.27;3.50;;;;;;;;;;4986943;28;20054;-57
2022/02/03 14:14:21;;;;;;;13.27;4.30;;;;;;;;;;5025102;28;20114;-56
2022/02/03 14:22:12;;;;;;;8.27;4.18;;;;;;;;;;5001934;28;20084;-53
2022/02/03 14:27:24;;;;;;;10.98;4.70;;;;;;;;;;5003041;28;20042;-54
2022/02/03 14:29:57;;;;;;;9.70;4.63;;;;;;;;;;5021854;28;20062;-55
2022/02/03 14:32:31;;;;;;;14.13;5.43;;;;;;;;;;5017195;28;20185;-55
2022/02/03 14:34:57;;;;;;;17.08;4.70;;;;;;;;;;5022457;28;20128;-57
2022/02/03 14:37:36;;;;;;;9.63;4.60;;;;;;;;;;5018899;28;20440;-53
2022/02/03 14:40:17;;;;;;;13.30;4.65;;;;;;;;;;5025919;28;20054;-57
2022/02/03 14:42:46;;;;;;;13.45;3.78;;;;;;;;;;5000619;28;20062;-57
2022/02/03 14:45:15;;;;;;;12.30;4.60;;;;;;;;;;5001164;28;20633;-55
2022/02/03 14:47:42;;;;;;;16.05;5.00;;;;;;;;;;5033016;28;20062;-56
2022/02/03 14:50:09;;;;;;;11.50;4.80;;;;;;;;;;5030834;28;20057;-56
2022/02/03 14:52:55;;;;;;;12.68;4.68;;;;;;;;;;4986590;28;20108;-55
2022/02/03 14:58:12;;;;;;;9.60;4.63;;;;;;;;;;5017962;28;20514;-56
2022/02/03 15:00:40;;;;;;;10.43;5.03;;;;;;;;;;5037377;28;20064;-53
2022/02/03 15:03:07;;;;;;;12.02;4.68;;;;;;;;;;5024578;28;20069;-56
2022/02/03 15:05:37;;;;;;;15.35;4.65;;;;;;;;;;5019379;28;20057;-56
2022/02/03 15:08:14;;;;;;;16.45;5.82;;;;;;;;;;5042237;28;20080;-56
2022/02/03 15:10:45;;;;;;;10.30;5.20;;;;;;;;;;5017422;28;20089;-57
2022/02/03 15:13:19;;;;;;;9.20;4.53;;;;;;;;;;5026663;28;20072;-56
2022/02/03 15:15:47;;;;;;;10.52;5.03;;;;;;;;;;5001430;28;20108;-56
2022/02/03 15:18:17;;;;;;;12.90;5.80;;;;;;;;;;5022330;28;20084;-56
2022/02/03 15:20:43;;;;;;;12.10;5.15;;;;;;;;;;5018591;28;20049;-57
2022/02/03 15:23:11;;;;;;;11.27;4.65;;;;;;;;;;5041916;28;20042;-54
2022/02/03 15:25:38;;;;;;;12.02;4.97;;;;;;;;;;5017292;28;20056;-56
2022/02/03 15:28:05;;;;;;;10.65;4.80;;;;;;;;;;5004545;28;20114;-57
2022/02/03 15:30:31;;;;;;;10.52;5.07;;;;;;;;;;5009025;28;20057;-55
2022/02/03 15:33:00;;;;;;;12.93;4.72;;;;;;;;;;5030003;28;20046;-56
2022/02/03 15:35:31;;;;;;;10.65;4.43;;;;;;;;;;5014699;28;20061;-57
2022/02/03 15:37:59;;;;;;;12.07;4.97;;;;;;;;;;5007224;28;20050;-57
2022/02/03 15:40:28;;;;;;;11.80;4.70;;;;;;;;;;5005656;28;20053;-58
2022/02/03 15:43:02;;;;;;;14.75;5.60;;;;;;;;;;5042208;28;20057;-56
2022/02/03 15:45:34;;;;;;;18.55;7.28;;;;;;;;;;5033896;28;20450;-57
2022/02/03 15:48:09;;;;;;;13.82;6.18;;;;;;;;;;5002499;28;20054;-56
2022/02/03 15:56:26;;;;;;;14.43;5.80;;;;;;;;;;5025166;28;20137;-58
2022/02/03 16:02:07;;;;;;;10.38;4.25;;;;;;;;;;5018734;28;20499;-55
2022/02/03 16:18:34;;;;;;;14.07;5.53;;;;;;;;;;4969927;28;20221;-57
2022/02/03 16:21:12;;;;;;;12.63;5.05;;;;;;;;;;4969421;28;20050;-58
2022/02/03 16:26:55;;;;;;;14.15;5.00;;;;;;;;;;5030462;28;20046;-57
2022/02/03 16:43:33;;;;;;;10.77;4.93;;;;;;;;;;5036371;28;20630;-56
2022/02/03 16:51:41;;;;;;;13.90;5.63;;;;;;;;;;5043521;28;20050;-53
2022/02/03 16:54:12;;;;;;;11.90;5.50;;;;;;;;;;5027676;28;20057;-54
2022/02/03 16:56:39;;;;;;;11.10;5.18;;;;;;;;;;5039813;28;20067;-56
2022/02/03 16:59:10;;;;;;;9.95;4.70;;;;;;;;;;5036329;28;20396;-57
2022/02/03 17:01:38;;;;;;;13.88;5.88;;;;;;;;;;5043315;28;20061;-58
2022/02/03 17:04:04;;;;;;;11.98;4.72;;;;;;;;;;5036082;28;20099;-55
2022/02/03 17:06:31;;;;;;;11.23;4.78;;;;;;;;;;5041856;28;20135;-55
2022/02/03 17:08:57;;;;;;;12.02;5.32;;;;;;;;;;5036637;28;20073;-58
2022/02/03 17:11:27;;;;;;;10.60;4.97;;;;;;;;;;5026663;28;20056;-55
2022/02/03 17:13:53;;;;;;;11.13;5.03;;;;;;;;;;5036497;28;20141;-56
2022/02/03 17:16:22;;;;;;;11.93;6.18;;;;;;;;;;5043420;28;20099;-54
2022/02/03 17:18:52;;;;;;;14.65;6.05;;;;;;;;;;5019254;28;20151;-55
2022/02/03 17:21:21;;;;;;;13.73;6.18;;;;;;;;;;5042964;28;20514;-53
2022/02/03 17:23:47;;;;;;;14.82;6.85;;;;;;;;;;5036949;28;20061;-56
2022/02/03 17:26:20;;;;;;;13.23;6.05;;;;;;;;;;5007031;28;20038;-58
2022/02/03 17:28:55;;;;;;;10.40;5.43;;;;;;;;;;5026319;28;20053;-56
2022/02/03 17:31:31;;;;;;;11.38;5.20;;;;;;;;;;5030006;28;20687;-52
2022/02/03 18:07:35;;;;;;;12.35;6.00;;;;;;;;;;5014884;28;20503;-57
2022/02/03 18:10:09;;;;;;;13.80;6.45;;;;;;;;;;5040678;28;20424;-58
2022/02/03 18:35:07;;;;;;;14.85;7.53;;;;;;;;;;4987729;28;20141;-54
2022/02/03 18:45:42;;;;;;;16.40;7.90;;;;;;;;;;5014432;28;20060;-58
2022/02/03 18:49:47;;;;;;;20.08;8.93;;;;;;;;;;5031816;28;20129;-58
2022/02/03 18:52:07;;;;;;;19.80;9.90;;;;;;;;;;5024170;28;20063;-57
2022/02/03 18:54:49;;;;;;;25.65;11.82;;;;;;;;;;5016900;28;20111;-58
2022/02/03 18:57:29;;;;;;;22.08;9.05;;;;;;;;;;5024446;28;20050;-54
2022/02/03 19:00:27;;;;;;;23.35;11.27;;;;;;;;;;5037731;28;20125;-58
2022/02/03 20:03:41;;;;;;;27.00;12.13;;;;;;;;;;4961344;28;20421;-53
2022/02/03 20:06:19;;;;;;;28.73;11.68;;;;;;;;;;5017905;28;20065;-58
2022/02/03 20:08:55;;;;;;;;;;;;;;;;;;5035067;28;20049;-53
2022/02/03 20:11:24;;;;;;;26.38;10.32;;;;;;;;;;5046645;28;20360;-55
2022/02/03 20:13:52;;;;;;;23.23;10.75;;;;;;;;;;5027340;28;20151;-50
2022/02/03 20:16:21;;;;;;;22.05;9.27;;;;;;;;;;5031316;28;20126;-55
2022/02/03 20:18:50;;;;;;;28.27;11.38;;;;;;;;;;5034856;28;20050;-57
2022/02/03 20:21:20;;;;;;;27.67;11.25;;;;;;;;;;5030873;28;20053;-57
2022/02/03 20:23:47;;;;;;;29.42;13.90;;;;;;;;;;5041927;28;20235;-57
2022/02/03 20:26:14;;;;;;;37.33;15.68;;;;;;;;;;5006877;28;20439;-57
2022/02/03 20:28:44;;;;;;;24.73;11.50;;;;;;;;;;5027159;28;20085;-58
2022/02/03 20:31:12;;;;;;;23.23;10.77;;;;;;;;;;5023077;28;20083;-57
2022/02/03 20:33:39;;;;;;;24.85;11.82;;;;;;;;;;5042990;28;20103;-55
2022/02/03 20:36:06;;;;;;;26.90;12.05;;;;;;;;;;5027291;28;20053;-57
2022/02/03 20:38:33;;;;;;;27.27;12.73;;;;;;;;;;5037460;28;20063;-55
2022/02/03 20:41:00;;;;;;;28.23;13.48;;;;;;;;;;5027785;28;20084;-54
2022/02/03 20:43:26;;;;;;;24.33;11.80;;;;;;;;;;5038045;28;20115;-57
2022/02/03 20:45:53;;;;;;;20.88;9.43;;;;;;;;;;5029687;28;20088;-56
2022/02/03 20:48:22;;;;;;;23.30;10.93;;;;;;;;;;5040440;28;20077;-55
2022/02/03 20:50:49;;;;;;;31.42;13.57;;;;;;;;;;5027896;28;20066;-53
2022/02/03 20:53:18;;;;;;;23.77;11.43;;;;;;;;;;5004027;28;20045;-56
2022/02/03 20:55:45;;;;;;;28.70;11.98;;;;;;;;;;5037202;28;20495;-57
2022/02/03 20:58:15;;;;;;;30.23;12.98;;;;;;;;;;5018958;28;20080;-58
2022/02/03 21:00:43;;;;;;;28.38;12.00;;;;;;;;;;5042418;28;20049;-55
2022/02/03 21:03:17;;;;;;;26.70;12.20;;;;;;;;;;5035368;28;20044;-55
2022/02/03 21:05:45;;;;;;;29.92;12.43;;;;;;;;;;5027014;28;20053;-58
2022/02/03 21:08:12;;;;;;;33.22;13.20;;;;;;;;;;5035263;28;20077;-56
2022/02/03 21:10:39;;;;;;;30.00;13.75;;;;;;;;;;5042895;28;20058;-57
2022/02/03 21:13:06;;;;;;;32.25;14.25;;;;;;;;;;5019234;28;22784;-57
2022/02/03 21:15:38;;;;;;;30.67;12.75;;;;;;;;;;5026578;28;20049;-55
2022/02/03 21:18:08;;;;;;;29.73;13.43;;;;;;;;;;5020250;28;20050;-55
2022/02/03 21:20:36;;;;;;;30.40;13.55;;;;;;;;;;5024950;28;20053;-57
2022/02/03 21:23:04;;;;;;;33.22;14.15;;;;;;;;;;5025863;28;20056;-53
2022/02/03 21:25:34;;;;;;;26.30;11.48;;;;;;;;;;5022744;28;20418;-54
2022/02/03 21:28:06;;;;;;;31.63;13.80;;;;;;;;;;5023035;28;20050;-57
2022/02/03 21:30:33;;;;;;;35.00;14.60;;;;;;;;;;5039029;28;20049;-55
2022/02/03 21:33:00;;;;;;;31.75;15.15;;;;;;;;;;5025798;28;20049;-56
2022/02/03 21:35:28;;;;;;;30.88;13.40;;;;;;;;;;5036726;28;20477;-56
2022/02/03 21:37:54;;;;;;;33.70;12.93;;;;;;;;;;5026558;28;20077;-56
2022/02/03 21:40:23;;;;;;;32.13;13.05;;;;;;;;;;5020087;28;20061;-54
2022/02/03 21:42:50;;;;;;;29.05;13.18;;;;;;;;;;5026733;28;20119;-53
2022/02/03 21:45:18;;;;;;;34.92;14.40;;;;;;;;;;5020736;28;20064;-55
2022/02/03 21:47:45;;;;;;;29.13;14.03;;;;;;;;;;5043982;28;20057;-54
2022/02/03 21:50:11;;;;;;;34.42;15.30;;;;;;;;;;5020338;28;20049;-55
2022/02/03 21:52:46;;;;;;;27.40;13.75;;;;;;;;;;5025938;28;20063;-56
2022/02/03 21:55:13;;;;;;;33.95;15.23;;;;;;;;;;5019604;28;20072;-57
2022/02/03 21:57:44;;;;;;;31.15;12.90;;;;;;;;;;5025622;28;20057;-54
2022/02/03 22:00:11;;;;;;;24.75;11.43;;;;;;;;;;5012631;28;20049;-56
2022/02/03 22:02:38;;;;;;;28.23;12.05;;;;;;;;;;5025551;28;20073;-58
2022/02/03 22:05:07;;;;;;;31.33;13.85;;;;;;;;;;5027631;28;20111;-56
2022/02/03 22:07:34;;;;;;;28.10;11.82;;;;;;;;;;5041555;28;20306;-54
2022/02/03 22:10:01;;;;;;;32.97;13.75;;;;;;;;;;5023141;28;20061;-56
2022/02/03 22:12:29;;;;;;;27.00;11.20;;;;;;;;;;5023944;28;20058;-57
2022/02/03 22:14:57;;;;;;;23.08;10.18;;;;;;;;;;5017211;28;20911;-57
2022/02/03 22:17:23;;;;;;;27.70;12.07;;;;;;;;;;5008820;28;20057;-56
2022/02/03 22:19:52;;;;;;;27.27;12.57;;;;;;;;;;5042477;28;20045;-54
2022/02/03 22:22:35;;;;;;;30.10;12.93;;;;;;;;;;5010681;28;20487;-57
2022/02/03 22:25:17;;;;;;;27.85;12.00;;;;;;;;;;5030899;28;20054;-58
2022/02/03 22:28:00;;;;;;;32.28;13.38;;;;;;;;;;5016716;28;20120;-52
2022/02/03 22:38:44;;;;;;;23.40;11.55;;;;;;;;;;5053873;28;20095;-57
2022/02/03 22:44:03;;;;;;;30.30;14.43;;;;;;;;;;5046748;28;20057;-57
2022/02/03 22:46:51;;;;;;;30.10;12.13;;;;;;;;;;5034957;28;20072;-58
2022/02/03 22:49:17;;;;;;;27.45;12.35;;;;;;;;;;5017221;28;20088;-56
2022/02/03 22:51:44;;;;;;;24.70;11.68;;;;;;;;;;5020403;28;20569;-56
2022/02/03 22:54:12;;;;;;;27.10;11.95;;;;;;;;;;5039612;28;20150;-57
2022/02/03 22:56:38;;;;;;;29.77;13.10;;;;;;;;;;5046679;28;20053;-57
2022/02/03 23:01:50;;;;;;;26.65;11.50;;;;;;;;;;5037936;28;20064;-58
2022/02/03 23:04:18;;;;;;;27.95;13.27;;;;;;;;;;5018361;28;20061;-57
2022/02/03 23:06:45;;;;;;;27.75;12.95;;;;;;;;;;5005778;28;20050;-57
2022/02/03 23:09:18;;;;;;;27.00;12.77;;;;;;;;;;5016041;28;20046;-57
2022/02/03 23:14:51;;;;;;;28.90;13.02;;;;;;;;;;4991391;28;20053;-56
2022/02/03 23:17:35;;;;;;;25.35;12.13;;;;;;;;;;5021641;28;20050;-56
2022/02/03 23:20:08;;;;;;;28.58;12.98;;;;;;;;;;4997828;28;20050;-55
2022/02/03 23:22:36;;;;;;;31.30;12.10;;;;;;;;;;5025611;28;20422;-58
2022/02/03 23:25:04;;;;;;;33.22;13.60;;;;;;;;;;5019249;28;20064;-56
2022/02/03 23:30:22;;;;;;;28.55;12.93;;;;;;;;;;4974740;28;20057;-56
2022/02/03 23:32:54;;;;;;;28.23;12.00;;;;;;;;;;4986441;28;20054;-56
2022/02/03 23:35:23;;;;;;;27.52;11.60;;;;;;;;;;5030152;28;20499;-56
2022/02/03 23:37:54;;;;;;;32.22;14.27;;;;;;;;;;5022899;28;20065;-56
2022/02/03 23:40:28;;;;;;;36.53;13.60;;;;;;;;;;5032246;28;20054;-56